Time;durP1;ratioP1;P1;durP2;ratioP2;P2;SDS_P1;SDS_P2;PMS_P1;PMS_P2;Temp;Humidity;BMP_temperature;BMP_pressure;BME280_temperature;BME280_humidity;BME280_pressure;Samples;Min_cycle;Max_cycle;Signal;HPM_P1;HPM_P2
2021/06/12 00:01:20;;;;;;;1268.77;999.90;;;19.90;99.90;;;;;;6326270;22;20402;-83
2021/06/12 00:03:46;;;;;;;1228.40;999.90;;;20.00;99.90;;;;;;6326297;22;20487;-82
2021/06/12 00:06:13;;;;;;;1269.10;999.90;;;20.00;99.90;;;;;;6324895;22;20974;-83
2021/06/12 00:08:39;;;;;;;1296.43;999.90;;;20.00;99.90;;;;;;6325275;22;20445;-82
2021/06/12 00:11:07;;;;;;;1278.27;999.90;;;20.00;99.90;;;;;;6325692;22;20500;-83
2021/06/12 00:13:33;;;;;;;1185.50;999.90;;;20.00;99.90;;;;;;6325238;22;20812;-82
2021/06/12 00:16:00;;;;;;;1252.33;999.90;;;20.00;99.90;;;;;;6326159;22;21002;-83
2021/06/12 00:18:27;;;;;;;1243.17;999.90;;;19.90;99.90;;;;;;6325824;22;20489;-84
2021/06/12 00:20:55;;;;;;;1271.97;999.90;;;19.90;99.90;;;;;;6326615;22;20406;-83
2021/06/12 00:23:21;;;;;;;1235.13;999.90;;;19.90;99.90;;;;;;6326842;22;20512;-83
2021/06/12 00:25:47;;;;;;;1173.10;999.90;;;19.90;99.90;;;;;;6325585;22;20488;-83
2021/06/12 00:28:15;;;;;;;1212.53;999.90;;;19.90;99.90;;;;;;6325821;22;20469;-83
2021/06/12 00:30:41;;;;;;;1179.90;999.90;;;19.90;99.90;;;;;;6327230;22;20430;-83
2021/06/12 00:33:08;;;;;;;1208.80;999.90;;;19.80;99.90;;;;;;6326518;22;20442;-83
2021/06/12 00:35:34;;;;;;;1204.57;999.90;;;19.80;99.90;;;;;;6329669;22;20409;-82
2021/06/12 00:38:00;;;;;;;1144.40;999.90;;;19.80;99.90;;;;;;6331795;22;20426;-81
2021/06/12 00:40:27;;;;;;;1137.97;999.90;;;19.70;99.90;;;;;;6327036;22;20475;-82
2021/06/12 00:42:53;;;;;;;1177.50;999.90;;;19.70;99.90;;;;;;6325477;22;20437;-83
2021/06/12 00:45:24;;;;;;;1161.93;999.90;;;19.70;99.90;;;;;;6325301;22;20441;-82
2021/06/12 00:47:52;;;;;;;1156.23;999.90;;;19.70;99.90;;;;;;6323373;22;20429;-83
2021/06/12 00:50:20;;;;;;;1093.03;997.07;;;19.70;99.90;;;;;;6325655;22;20485;-82
2021/06/12 00:52:46;;;;;;;1083.70;993.37;;;19.80;99.90;;;;;;6326026;22;20415;-83
2021/06/12 00:55:14;;;;;;;1084.80;993.57;;;19.80;99.90;;;;;;6325158;22;20406;-83
2021/06/12 00:57:41;;;;;;;1100.17;996.73;;;19.80;99.90;;;;;;6325109;22;20402;-83
2021/06/12 01:00:11;;;;;;;1119.07;999.90;;;19.70;99.90;;;;;;6323598;22;20485;-82
2021/06/12 01:02:39;;;;;;;1074.97;991.17;;;19.80;99.90;;;;;;6323521;22;20776;-82
2021/06/12 01:05:08;;;;;;;1033.13;960.87;;;19.80;99.90;;;;;;6325065;22;20489;-81
2021/06/12 01:07:35;;;;;;;908.93;839.27;;;19.90;99.90;;;;;;6323662;22;20442;-83
2021/06/12 01:10:02;;;;;;;1014.00;927.37;;;19.90;99.90;;;;;;6324851;22;20449;-81
2021/06/12 01:12:37;;;;;;;956.13;888.47;;;19.90;99.90;;;;;;6325422;22;20921;-82
2021/06/12 01:15:09;;;;;;;978.93;906.43;;;20.00;99.90;;;;;;6325521;22;20405;-83
2021/06/12 01:17:46;;;;;;;956.87;892.50;;;20.00;99.90;;;;;;6325881;22;20394;-82
2021/06/12 01:20:28;;;;;;;1014.40;944.90;;;20.00;99.90;;;;;;6326062;22;20426;-82
2021/06/12 01:23:27;;;;;;;900.33;839.43;;;20.10;99.90;;;;;;6325355;22;20477;-82
2021/06/12 01:26:02;;;;;;;807.07;757.67;;;20.20;99.90;;;;;;6325388;22;20454;-82
2021/06/12 01:28:58;;;;;;;777.37;722.53;;;20.30;99.90;;;;;;6323506;22;20465;-81
2021/06/12 01:31:28;;;;;;;865.37;809.37;;;20.30;99.90;;;;;;6325710;22;20406;-83
2021/06/12 01:33:54;;;;;;;915.33;856.80;;;20.30;99.90;;;;;;6324310;22;20422;-82
2021/06/12 01:36:23;;;;;;;954.17;891.07;;;20.40;99.90;;;;;;6324920;22;20401;-83
2021/06/12 01:38:52;;;;;;;912.00;848.43;;;20.40;99.90;;;;;;6323942;22;20497;-83
2021/06/12 01:41:22;;;;;;;836.83;783.03;;;20.40;99.90;;;;;;6325426;22;20485;-82
2021/06/12 01:43:49;;;;;;;869.63;812.67;;;20.40;99.90;;;;;;6324280;22;20473;-82
2021/06/12 01:46:17;;;;;;;1004.73;929.57;;;20.40;99.90;;;;;;6321196;22;20473;-81
2021/06/12 01:48:46;;;;;;;1006.77;936.60;;;20.40;99.90;;;;;;6322991;22;20486;-82
2021/06/12 01:51:13;;;;;;;789.10;738.30;;;20.30;99.90;;;;;;6323942;22;20489;-81
2021/06/12 01:53:41;;;;;;;821.13;768.30;;;20.30;99.90;;;;;;6323937;22;20469;-81
2021/06/12 01:56:12;;;;;;;1056.07;978.20;;;20.30;99.90;;;;;;6324380;22;20402;-83
2021/06/12 01:58:42;;;;;;;872.57;816.50;;;20.30;99.90;;;;;;6324759;22;20418;-83
2021/06/12 02:01:12;;;;;;;1040.90;956.43;;;20.20;99.90;;;;;;6325140;22;20478;-83
2021/06/12 02:03:40;;;;;;;781.97;732.37;;;20.30;99.90;;;;;;6325114;22;20426;-83
2021/06/12 02:06:11;;;;;;;957.03;891.47;;;20.30;99.90;;;;;;6325902;22;20422;-83
2021/06/12 02:08:40;;;;;;;800.93;744.03;;;20.40;99.90;;;;;;6323849;22;20446;-82
2021/06/12 02:11:06;;;;;;;886.10;829.20;;;20.30;99.90;;;;;;6325229;22;20416;-83
2021/06/12 02:13:33;;;;;;;942.83;875.30;;;20.30;99.90;;;;;;6324471;22;20482;-83
2021/06/12 02:16:00;;;;;;;891.57;831.60;;;20.20;99.90;;;;;;6325838;22;20441;-83
2021/06/12 02:18:28;;;;;;;821.63;769.77;;;20.20;99.90;;;;;;6326023;22;20470;-83
2021/06/12 02:20:57;;;;;;;840.80;786.43;;;20.20;99.90;;;;;;6325689;22;20611;-83
2021/06/12 02:23:27;;;;;;;970.43;906.83;;;20.20;99.90;;;;;;6331890;22;20440;-81
2021/06/12 02:25:53;;;;;;;592.13;560.10;;;20.30;99.90;;;;;;6325680;22;20430;-83
2021/06/12 02:28:21;;;;;;;803.03;754.50;;;20.30;99.90;;;;;;6324918;22;20448;-82
2021/06/12 02:30:53;;;;;;;622.27;586.60;;;20.30;99.90;;;;;;6324992;22;20436;-84
2021/06/12 02:33:22;;;;;;;934.57;867.80;;;20.20;99.90;;;;;;6325245;22;20390;-84
2021/06/12 02:35:48;;;;;;;788.97;740.07;;;20.30;99.90;;;;;;6323952;22;20489;-85
2021/06/12 02:38:16;;;;;;;1060.07;980.67;;;20.20;99.90;;;;;;6325331;22;20488;-82
2021/06/12 02:40:43;;;;;;;706.10;664.73;;;20.10;99.90;;;;;;6323745;22;20998;-83
2021/06/12 02:43:10;;;;;;;723.83;682.03;;;20.20;99.90;;;;;;6324714;22;20406;-83
2021/06/12 02:45:37;;;;;;;733.37;693.17;;;20.20;99.90;;;;;;6324071;22;20402;-85
2021/06/12 02:48:08;;;;;;;906.10;848.60;;;20.20;99.90;;;;;;6325180;22;20444;-84
2021/06/12 02:50:36;;;;;;;586.13;548.03;;;20.30;99.90;;;;;;6327544;22;20449;-83
2021/06/12 02:53:04;;;;;;;872.13;815.17;;;20.20;99.90;;;;;;6328494;22;20475;-83
2021/06/12 02:55:34;;;;;;;805.90;752.23;;;20.10;99.90;;;;;;6329101;22;20433;-84
2021/06/12 02:58:02;;;;;;;675.07;635.27;;;20.10;99.90;;;;;;6328597;22;20401;-84
2021/06/12 03:00:29;;;;;;;927.00;865.77;;;20.10;99.90;;;;;;6327141;22;20421;-83
2021/06/12 03:02:56;;;;;;;736.90;692.50;;;20.10;99.90;;;;;;6325734;22;20473;-84
2021/06/12 03:05:26;;;;;;;1071.37;987.37;;;20.00;99.90;;;;;;6326805;22;20458;-84
2021/06/12 03:07:54;;;;;;;996.23;925.97;;;20.00;99.90;;;;;;6327219;22;20462;-84
2021/06/12 03:10:23;;;;;;;640.17;604.40;;;19.90;99.90;;;;;;6326455;22;20494;-85
2021/06/12 03:12:51;;;;;;;866.57;811.67;;;19.90;99.90;;;;;;6326097;22;20437;-83
2021/06/12 03:15:19;;;;;;;831.63;782.27;;;19.90;99.90;;;;;;6327915;22;20991;-83
2021/06/12 03:17:47;;;;;;;823.60;774.83;;;19.90;99.90;;;;;;6325225;22;20476;-85
2021/06/12 03:20:15;;;;;;;795.63;748.93;;;19.90;99.90;;;;;;6324651;22;21008;-83
2021/06/12 03:22:45;;;;;;;872.77;818.13;;;19.80;99.90;;;;;;6325241;22;20495;-84
2021/06/12 03:25:13;;;;;;;690.67;651.53;;;19.70;99.90;;;;;;6325082;22;20405;-84
2021/06/12 03:27:39;;;;;;;732.73;689.57;;;19.70;99.90;;;;;;6325831;22;20958;-84
2021/06/12 03:30:08;;;;;;;751.17;707.67;;;19.70;99.90;;;;;;6325131;22;20493;-84
2021/06/12 03:32:36;;;;;;;884.00;822.07;;;19.60;99.90;;;;;;6325790;22;20486;-85
2021/06/12 03:35:03;;;;;;;791.60;743.90;;;19.60;99.90;;;;;;6325796;22;20462;-84
2021/06/12 03:37:31;;;;;;;796.70;750.83;;;19.50;99.90;;;;;;6326110;22;20478;-84
2021/06/12 03:39:57;;;;;;;726.67;683.93;;;19.50;99.90;;;;;;6325648;22;20493;-84
2021/06/12 03:42:24;;;;;;;704.60;663.33;;;19.50;99.90;;;;;;6306296;22;20555;-83
2021/06/12 03:44:51;;;;;;;715.87;673.13;;;19.50;99.90;;;;;;6310685;22;20405;-83
2021/06/12 03:47:18;;;;;;;686.87;648.57;;;19.40;99.90;;;;;;6316257;22;20394;-81
2021/06/12 03:49:46;;;;;;;634.67;596.27;;;19.40;99.90;;;;;;6316527;22;20416;-80
2021/06/12 03:52:13;;;;;;;683.70;644.97;;;19.40;99.90;;;;;;6316349;22;20715;-81
2021/06/12 03:54:41;;;;;;;715.33;673.43;;;19.30;99.90;;;;;;6317723;22;20469;-81
2021/06/12 03:57:08;;;;;;;625.20;590.43;;;19.40;99.90;;;;;;6317216;22;20906;-80
2021/06/12 03:59:34;;;;;;;578.33;543.10;;;19.40;99.90;;;;;;6316800;22;20409;-82
2021/06/12 04:02:01;;;;;;;566.97;537.40;;;19.40;99.90;;;;;;6314577;22;20432;-83
2021/06/12 04:04:27;;;;;;;547.53;517.73;;;19.30;99.90;;;;;;6315224;22;20962;-82
2021/06/12 04:06:55;;;;;;;630.77;593.80;;;19.30;99.90;;;;;;6315187;22;20473;-83
2021/06/12 04:09:21;;;;;;;578.17;548.30;;;19.30;99.90;;;;;;6316179;22;20831;-83
2021/06/12 04:11:48;;;;;;;708.30;668.13;;;19.40;99.90;;;;;;6314482;22;20492;-81
2021/06/12 04:14:14;;;;;;;751.93;700.70;;;19.40;99.90;;;;;;6313572;22;21008;-81
2021/06/12 04:16:40;;;;;;;542.03;497.67;;;19.30;99.90;;;;;;6314132;22;20406;-81
2021/06/12 04:19:07;;;;;;;641.63;599.83;;;19.30;99.90;;;;;;6313333;22;20843;-81
2021/06/12 04:21:33;;;;;;;675.70;633.60;;;19.30;99.90;;;;;;6313809;22;20517;-82
2021/06/12 04:24:01;;;;;;;461.10;436.73;;;19.30;99.90;;;;;;6313779;22;20841;-82
2021/06/12 04:26:27;;;;;;;363.57;345.57;;;19.40;99.90;;;;;;6314691;22;20409;-80
2021/06/12 04:28:53;;;;;;;513.27;477.80;;;19.40;99.90;;;;;;6314009;22;20438;-81
2021/06/12 04:31:19;;;;;;;253.53;240.27;;;19.50;99.90;;;;;;6311776;22;20885;-83
2021/06/12 04:33:46;;;;;;;580.33;543.43;;;19.50;99.90;;;;;;6310109;22;20493;-83
2021/06/12 04:36:12;;;;;;;469.87;446.30;;;19.60;99.90;;;;;;6308596;22;20911;-84
2021/06/12 04:38:38;;;;;;;799.87;750.00;;;19.50;99.90;;;;;;6309884;22;20923;-84
2021/06/12 04:41:06;;;;;;;355.13;331.20;;;19.40;99.90;;;;;;6309641;22;20980;-84
2021/06/12 04:43:33;;;;;;;433.00;410.73;;;19.60;99.90;;;;;;6309796;22;20480;-84
2021/06/12 04:45:59;;;;;;;353.10;335.40;;;19.70;99.90;;;;;;6308955;22;20810;-82
2021/06/12 04:48:25;;;;;;;1700.75;999.90;;;19.80;99.90;;;;;;6309547;22;20415;-85
2021/06/12 04:50:52;;;;;;;948.97;882.87;;;19.90;99.90;;;;;;6310931;22;20258;-84
2021/06/12 04:53:18;;;;;;;895.40;823.70;;;20.00;99.90;;;;;;6313067;22;20982;-85
2021/06/12 04:55:44;;;;;;;465.40;435.73;;;20.00;99.90;;;;;;6312262;22;20452;-85
2021/06/12 04:58:12;;;;;;;423.77;402.33;;;19.90;99.90;;;;;;6311507;22;20496;-85
2021/06/12 05:00:39;;;;;;;547.50;516.73;;;20.00;99.90;;;;;;6311605;22;20410;-86
2021/06/12 05:03:06;;;;;;;725.87;673.30;;;20.00;99.90;;;;;;6310117;22;20425;-84
2021/06/12 05:05:33;;;;;;;571.83;534.97;;;20.00;99.90;;;;;;6312845;22;20931;-86
2021/06/12 05:07:59;;;;;;;607.23;571.07;;;20.10;99.90;;;;;;6320814;22;20512;-84
2021/06/12 05:10:26;;;;;;;406.43;383.97;;;20.20;99.90;;;;;;6332021;22;20469;-85
2021/06/12 05:12:52;;;;;;;529.73;502.80;;;20.30;99.90;;;;;;6329078;22;21023;-86
2021/06/12 05:15:24;;;;;;;388.67;369.67;;;20.30;99.90;;;;;;6329449;22;20421;-85
2021/06/12 05:17:51;;;;;;;423.77;402.93;;;20.40;99.90;;;;;;6327971;22;20402;-84
2021/06/12 05:20:17;;;;;;;375.70;357.43;;;20.50;99.90;;;;;;6327597;22;20402;-85
2021/06/12 05:22:43;;;;;;;647.20;611.23;;;20.50;99.90;;;;;;6324469;22;20449;-84
2021/06/12 05:25:10;;;;;;;378.17;359.60;;;20.30;99.90;;;;;;6311251;22;20417;-85
2021/06/12 05:27:37;;;;;;;523.93;494.37;;;20.50;99.90;;;;;;6312980;22;20485;-85
2021/06/12 05:30:04;;;;;;;527.20;496.83;;;20.50;99.90;;;;;;6313728;22;20406;-85
2021/06/12 05:32:32;;;;;;;896.00;837.80;;;20.40;99.90;;;;;;6314486;22;20492;-84
2021/06/12 05:35:00;;;;;;;834.80;777.77;;;20.30;99.90;;;;;;6315102;22;20494;-86
2021/06/12 05:37:26;;;;;;;668.73;630.03;;;20.30;99.90;;;;;;6313754;22;20414;-85
2021/06/12 05:39:52;;;;;;;663.47;619.80;;;20.40;99.90;;;;;;6314400;22;20802;-85
2021/06/12 05:42:19;;;;;;;843.27;790.63;;;20.30;99.90;;;;;;6313597;22;20469;-84
2021/06/12 05:44:46;;;;;;;573.97;543.90;;;20.30;99.90;;;;;;6314444;22;20433;-84
2021/06/12 05:47:12;;;;;;;360.53;340.10;;;20.40;99.90;;;;;;6314200;22;20461;-84
2021/06/12 05:49:41;;;;;;;691.87;648.57;;;20.20;99.90;;;;;;6313066;22;20509;-85
2021/06/12 05:52:07;;;;;;;752.03;696.47;;;20.20;99.90;;;;;;6310566;22;20430;-86
2021/06/12 05:54:33;;;;;;;711.90;663.20;;;20.20;99.90;;;;;;6314366;22;20410;-86
2021/06/12 05:57:00;;;;;;;323.03;306.97;;;20.10;99.90;;;;;;6313309;22;20497;-87
2021/06/12 05:59:29;;;;;;;493.67;461.97;;;20.30;99.90;;;;;;6318852;22;21005;-87
2021/06/12 06:02:03;;;;;;;515.50;488.80;;;20.20;99.90;;;;;;6318586;22;20919;-84
2021/06/12 06:04:30;;;;;;;445.30;418.87;;;20.40;99.90;;;;;;6319505;22;20458;-87
2021/06/12 06:06:58;;;;;;;556.07;525.00;;;20.40;99.90;;;;;;6318065;22;20441;-86
2021/06/12 06:09:24;;;;;;;346.37;328.33;;;20.60;99.90;;;;;;6316325;22;20519;-86
2021/06/12 06:11:54;;;;;;;554.77;524.80;;;20.80;99.90;;;;;;6318111;22;20430;-83
2021/06/12 06:14:20;;;;;;;162.07;152.20;;;20.80;99.90;;;;;;6314158;22;20486;-86
2021/06/12 06:16:47;;;;;;;657.90;617.40;;;21.10;99.90;;;;;;6315550;22;20539;-86
2021/06/12 06:19:15;;;;;;;747.83;703.90;;;21.10;99.90;;;;;;6315392;22;20466;-86
2021/06/12 06:21:41;;;;;;;472.47;448.90;;;21.20;99.90;;;;;;6310679;22;20456;-83
2021/06/12 06:24:10;;;;;;;362.47;345.10;;;21.50;99.90;;;;;;6311071;22;20401;-83
2021/06/12 06:26:37;;;;;;;428.67;405.23;;;21.60;99.90;;;;;;6310377;22;20744;-83
2021/06/12 06:29:03;;;;;;;463.57;438.93;;;21.60;99.90;;;;;;6310561;22;20522;-84
2021/06/12 06:31:30;;;;;;;573.80;539.87;;;21.60;99.90;;;;;;6311594;22;20433;-83
2021/06/12 06:33:56;;;;;;;775.40;716.27;;;21.80;99.90;;;;;;6309807;22;20417;-83
2021/06/12 06:36:22;;;;;;;312.87;294.40;;;21.90;99.90;;;;;;6310686;22;20409;-84
2021/06/12 06:38:49;;;;;;;389.20;369.47;;;21.90;99.90;;;;;;6310003;22;20452;-84
2021/06/12 06:41:18;;;;;;;369.47;349.43;;;22.20;99.90;;;;;;6310488;22;20846;-83
2021/06/12 06:43:44;;;;;;;581.17;547.20;;;22.50;99.90;;;;;;6310638;22;20398;-82
2021/06/12 06:46:11;;;;;;;905.60;833.90;;;22.60;99.90;;;;;;6315795;22;20401;-82
2021/06/12 06:48:37;;;;;;;951.90;876.10;;;22.30;99.90;;;;;;6310466;22;21019;-82
2021/06/12 06:51:04;;;;;;;493.17;466.17;;;22.30;99.90;;;;;;6310778;22;20887;-81
2021/06/12 06:53:33;;;;;;;1069.50;962.33;;;22.30;99.90;;;;;;6310896;22;20409;-82
2021/06/12 06:56:00;;;;;;;1074.63;981.37;;;22.40;99.90;;;;;;6310067;22;20421;-83
2021/06/12 06:58:28;;;;;;;606.60;572.63;;;22.30;99.90;;;;;;6310470;22;20402;-82
2021/06/12 07:00:54;;;;;;;578.37;543.77;;;22.30;99.90;;;;;;6309795;22;20421;-83
2021/06/12 07:03:21;;;;;;;629.30;591.97;;;22.50;99.90;;;;;;6310493;22;20470;-83
2021/06/12 07:05:48;;;;;;;870.67;807.83;;;22.50;99.90;;;;;;6310587;22;20744;-83
2021/06/12 07:08:14;;;;;;;710.93;670.90;;;22.40;99.90;;;;;;6308825;22;20442;-83
2021/06/12 07:10:41;;;;;;;1008.47;928.17;;;22.20;99.90;;;;;;6310399;22;20540;-83
2021/06/12 07:13:08;;;;;;;673.17;632.80;;;22.00;99.90;;;;;;6311026;22;20421;-83
2021/06/12 07:15:35;;;;;;;707.43;652.70;;;21.80;99.90;;;;;;6311570;22;20424;-84
2021/06/12 07:18:02;;;;;;;612.40;575.40;;;21.60;99.90;;;;;;6310815;22;20406;-84
2021/06/12 07:20:29;;;;;;;921.73;859.50;;;21.50;99.90;;;;;;6310998;22;20417;-84
2021/06/12 07:22:56;;;;;;;693.67;647.50;;;21.30;99.90;;;;;;6310349;22;20438;-84
2021/06/12 07:25:22;;;;;;;562.13;531.40;;;21.20;99.90;;;;;;6315323;22;20436;-82
2021/06/12 07:27:49;;;;;;;787.53;733.17;;;21.20;99.90;;;;;;6315189;22;20420;-82
2021/06/12 07:30:16;;;;;;;838.07;786.77;;;21.10;99.90;;;;;;6310089;22;20389;-81
2021/06/12 07:32:44;;;;;;;1031.17;951.97;;;21.00;99.90;;;;;;6314940;22;20495;-81
2021/06/12 07:35:12;;;;;;;620.77;586.03;;;21.00;99.90;;;;;;6314143;22;20406;-82
2021/06/12 07:37:39;;;;;;;587.97;549.67;;;20.90;99.90;;;;;;6316378;22;20454;-82
2021/06/12 07:40:07;;;;;;;442.13;416.20;;;20.80;99.90;;;;;;6313545;22;20402;-82
2021/06/12 07:42:33;;;;;;;636.57;598.93;;;20.80;99.90;;;;;;6313315;22;20498;-82
2021/06/12 07:45:00;;;;;;;626.20;585.10;;;21.00;99.90;;;;;;6314555;22;20405;-82
2021/06/12 07:47:26;;;;;;;733.13;681.30;;;21.10;99.90;;;;;;6314434;22;20394;-82
2021/06/12 07:49:54;;;;;;;658.37;614.20;;;21.30;99.90;;;;;;6313551;22;20991;-82
2021/06/12 07:52:21;;;;;;;540.63;507.30;;;21.50;99.90;;;;;;6312969;22;20411;-82
2021/06/12 07:54:47;;;;;;;375.57;356.13;;;21.60;99.90;;;;;;6314477;22;20409;-84
2021/06/12 07:57:14;;;;;;;695.80;649.33;;;21.60;99.90;;;;;;6312637;22;20412;-83
2021/06/12 07:59:40;;;;;;;859.77;795.63;;;21.50;99.90;;;;;;6311776;22;20413;-85
2021/06/12 08:02:07;;;;;;;468.73;443.67;;;21.40;99.90;;;;;;6308358;22;20766;-85
2021/06/12 08:04:34;;;;;;;698.33;658.37;;;21.30;99.90;;;;;;6309835;22;20409;-86
2021/06/12 08:07:02;;;;;;;706.97;658.60;;;21.20;99.90;;;;;;6316618;22;20409;-83
2021/06/12 08:09:28;;;;;;;732.00;687.73;;;20.90;99.90;;;;;;6320251;22;20445;-84
2021/06/12 08:11:55;;;;;;;783.07;731.87;;;21.00;99.90;;;;;;6315713;22;20430;-83
2021/06/12 08:14:21;;;;;;;906.40;842.27;;;20.80;99.90;;;;;;6317531;22;20708;-84
2021/06/12 08:16:48;;;;;;;696.30;653.30;;;20.60;99.90;;;;;;6314043;22;20463;-85
2021/06/12 08:19:14;;;;;;;720.93;677.70;;;20.60;99.90;;;;;;6314089;22;20405;-86
2021/06/12 08:21:41;;;;;;;982.33;904.27;;;20.40;99.90;;;;;;6317999;22;20437;-85
2021/06/12 08:24:10;;;;;;;626.23;586.43;;;20.40;99.90;;;;;;6317595;22;20443;-85
2021/06/12 08:26:36;;;;;;;829.50;774.23;;;20.40;99.90;;;;;;6315143;22;20406;-85
2021/06/12 08:29:03;;;;;;;596.23;560.80;;;20.40;99.90;;;;;;6311667;22;20437;-85
2021/06/12 08:31:33;;;;;;;1008.90;929.20;;;20.40;99.90;;;;;;6310965;22;20436;-82
2021/06/12 08:33:59;;;;;;;493.47;466.20;;;20.40;99.90;;;;;;6314997;22;20914;-81
2021/06/12 08:36:26;;;;;;;804.03;746.30;;;20.50;99.90;;;;;;6316371;22;20402;-82
2021/06/12 08:38:53;;;;;;;368.77;345.03;;;20.50;99.90;;;;;;6314394;22;20398;-81
2021/06/12 08:41:20;;;;;;;669.90;630.37;;;20.50;99.90;;;;;;6316023;22;20464;-80
2021/06/12 08:43:48;;;;;;;694.40;644.87;;;20.60;99.90;;;;;;6312544;22;20390;-80
2021/06/12 08:46:14;;;;;;;186.03;174.57;;;20.90;99.90;;;;;;6311393;22;20409;-80
2021/06/12 08:48:42;;;;;;;525.83;495.40;;;20.90;99.90;;;;;;6311683;22;21039;-80
2021/06/12 08:51:08;;;;;;;433.47;408.57;;;21.20;99.90;;;;;;6314216;22;20459;-79
2021/06/12 08:53:36;;;;;;;249.63;231.63;;;21.60;99.90;;;;;;6314739;22;20406;-80
2021/06/12 08:56:03;;;;;;;512.50;478.83;;;21.90;99.90;;;;;;6313809;22;20408;-79
2021/06/12 08:58:31;;;;;;;481.67;450.70;;;22.00;99.90;;;;;;6311078;22;20479;-79
2021/06/12 09:00:58;;;;;;;342.47;320.17;;;22.60;99.90;;;;;;6312067;22;20455;-79
2021/06/12 09:03:27;;;;;;;1038.17;947.63;;;23.00;99.90;;;;;;6312110;22;20413;-79
2021/06/12 09:05:54;;;;;;;731.47;687.60;;;23.50;99.90;;;;;;6312358;22;20402;-80
2021/06/12 09:08:23;;;;;;;588.63;554.33;;;23.60;99.90;;;;;;6313457;22;20442;-80
2021/06/12 09:11:01;;;;;;;577.37;542.63;;;23.50;99.90;;;;;;6311454;22;20444;-79
2021/06/12 09:13:38;;;;;;;809.93;759.80;;;23.30;99.90;;;;;;6311608;22;20393;-78
2021/06/12 09:16:06;;;;;;;1085.23;999.57;;;23.30;99.90;;;;;;6311172;22;20402;-80
2021/06/12 09:18:38;;;;;;;768.30;709.33;;;23.10;99.90;;;;;;6309716;22;20402;-80
2021/06/12 09:21:05;;;;;;;981.03;911.33;;;23.60;99.90;;;;;;6311180;22;20918;-78
2021/06/12 09:23:40;;;;;;;832.63;772.27;;;23.80;99.90;;;;;;6308653;22;20421;-80
2021/06/12 09:26:07;;;;;;;647.00;606.10;;;24.30;99.90;;;;;;6308234;22;20437;-79
2021/06/12 09:28:47;;;;;;;792.20;744.90;;;24.50;99.90;;;;;;6309904;22;20449;-79
2021/06/12 09:31:19;;;;;;;1059.77;961.73;;;24.30;99.90;;;;;;6311894;22;20429;-79
2021/06/12 09:33:46;;;;;;;1136.60;999.03;;;23.80;99.90;;;;;;6311472;22;20410;-80
2021/06/12 09:36:13;;;;;;;633.13;594.03;;;23.50;99.90;;;;;;6313000;22;20895;-80
2021/06/12 09:38:41;;;;;;;956.90;867.73;;;23.40;99.90;;;;;;6311103;22;20402;-80
2021/06/12 09:41:24;;;;;;;991.83;903.83;;;23.20;99.90;;;;;;6312013;22;20430;-79
2021/06/12 09:43:53;;;;;;;803.10;752.23;;;22.90;99.90;;;;;;6312000;22;20437;-78
2021/06/12 09:46:37;;;;;;;873.73;808.13;;;22.80;99.90;;;;;;6310940;22;20413;-80
2021/06/12 09:49:05;;;;;;;1000.63;912.83;;;22.70;99.90;;;;;;6309933;22;20484;-81
2021/06/12 09:51:32;;;;;;;916.87;841.13;;;23.20;99.90;;;;;;6327723;22;20409;-82
2021/06/12 09:54:01;;;;;;;968.20;884.13;;;23.50;99.90;;;;;;6328103;22;20409;-81
2021/06/12 09:56:27;;;;;;;1017.93;940.87;;;23.80;99.90;;;;;;6329852;22;20402;-81
2021/06/12 09:58:57;;;;;;;854.57;797.17;;;23.50;99.90;;;;;;6331357;22;20418;-81
2021/06/12 10:01:29;;;;;;;1063.87;964.00;;;23.30;99.90;;;;;;6302935;22;20475;-82
2021/06/12 10:04:10;;;;;;;1029.53;933.17;;;23.00;99.90;;;;;;6330933;22;20397;-82
2021/06/12 10:06:37;;;;;;;1120.83;957.27;;;22.90;99.90;;;;;;6331158;22;20409;-82
2021/06/12 10:09:07;;;;;;;743.43;687.00;;;23.40;99.90;;;;;;6329379;22;20441;-81
2021/06/12 10:11:35;;;;;;;449.77;425.80;;;23.50;99.90;;;;;;6330899;22;20417;-81
2021/06/12 10:14:04;;;;;;;963.87;890.03;;;23.80;99.90;;;;;;6329080;22;20923;-81
2021/06/12 10:16:33;;;;;;;761.70;709.70;;;23.90;99.90;;;;;;6329729;22;20402;-81
2021/06/12 10:19:00;;;;;;;1049.33;953.93;;;23.90;99.90;;;;;;6329945;22;20440;-81
2021/06/12 10:21:27;;;;;;;1129.63;999.90;;;24.10;99.90;;;;;;6329242;22;20409;-80
2021/06/12 10:23:53;;;;;;;962.07;888.63;;;24.10;99.90;;;;;;6329412;22;20421;-80
2021/06/12 10:26:21;;;;;;;771.77;726.53;;;24.00;99.90;;;;;;6328439;22;20406;-81
2021/06/12 10:28:48;;;;;;;1087.67;989.00;;;24.40;99.90;;;;;;6326969;22;20452;-81
2021/06/12 10:31:20;;;;;;;1139.10;999.90;;;24.50;99.90;;;;;;6325084;22;20401;-81
2021/06/12 10:33:48;;;;;;;1180.63;999.90;;;24.00;99.90;;;;;;6327072;22;20390;-81
2021/06/12 10:36:16;;;;;;;1220.77;999.90;;;24.20;99.90;;;;;;6326164;22;20413;-82
2021/06/12 10:38:43;;;;;;;1268.40;999.90;;;24.00;99.90;;;;;;6326019;22;20425;-81
2021/06/12 10:41:19;;;;;;;1043.07;941.17;;;24.60;99.90;;;;;;6324590;22;20438;-82
2021/06/12 10:43:46;;;;;;;1123.40;996.83;;;25.40;99.90;;;;;;6323908;22;20396;-81
2021/06/12 10:46:19;;;;;;;1177.63;999.90;;;25.50;99.90;;;;;;6325481;22;20429;-82
2021/06/12 10:48:48;;;;;;;1106.03;999.43;;;25.20;99.90;;;;;;6325157;22;20471;-82
2021/06/12 10:51:37;;;;;;;1170.47;999.90;;;24.70;99.90;;;;;;6326892;22;20413;-82
2021/06/12 10:54:20;;;;;;;432.47;408.77;;;24.00;99.90;;;;;;6326557;22;20406;-81
2021/06/12 10:56:48;;;;;;;219.83;206.00;;;24.10;99.90;;;;;;6325711;22;20420;-81
2021/06/12 10:59:42;;;;;;;742.63;689.67;;;24.70;99.90;;;;;;6324611;22;20469;-80
2021/06/12 11:02:13;;;;;;;482.30;453.43;;;25.30;99.90;;;;;;6324648;22;20398;-80
2021/06/12 11:04:48;;;;;;;1075.27;971.77;;;25.10;99.90;;;;;;6326096;22;20460;-80
2021/06/12 11:07:27;;;;;;;510.53;482.67;;;24.80;99.90;;;;;;6324495;22;20447;-80
2021/06/12 11:10:24;;;;;;;617.20;580.30;;;24.30;99.90;;;;;;6325744;22;20452;-80
2021/06/12 11:12:56;;;;;;;754.30;699.27;;;23.90;99.90;;;;;;6310299;22;20485;-80
2021/06/12 11:15:40;;;;;;;365.20;342.83;;;23.60;99.90;;;;;;6327108;22;20397;-80
2021/06/12 11:18:22;;;;;;;857.73;800.23;;;24.10;99.90;;;;;;6327585;22;20453;-80
2021/06/12 11:21:05;;;;;;;1630.23;931.83;;;25.00;99.90;;;;;;6327206;22;20394;-80
2021/06/12 11:23:44;;;;;;;1025.87;944.87;;;24.90;99.90;;;;;;6326895;22;20478;-81
2021/06/12 11:26:12;;;;;;;589.37;556.83;;;24.60;99.90;;;;;;6327615;22;20414;-81
2021/06/12 11:28:40;;;;;;;970.20;867.83;;;24.00;99.90;;;;;;6326832;22;20663;-81
2021/06/12 11:31:33;;;;;;;767.20;694.13;;;23.40;99.90;;;;;;6327140;22;20431;-80
2021/06/12 11:34:26;;;;;;;785.07;716.57;;;22.90;99.90;;;;;;6299750;22;20513;-80
2021/06/12 11:37:17;;;;;;;1064.67;964.27;;;22.60;99.90;;;;;;6297952;22;20429;-81
2021/06/12 11:39:46;;;;;;;783.57;718.80;;;22.30;99.90;;;;;;6321304;22;20489;-80
2021/06/12 11:42:13;;;;;;;897.07;831.83;;;22.30;99.90;;;;;;6327417;22;20433;-80
2021/06/12 11:44:39;;;;;;;377.17;355.07;;;22.40;99.90;;;;;;6328777;22;20465;-81
2021/06/12 11:47:05;;;;;;;1999.90;999.90;;;22.60;99.90;;;;;;6326472;22;20449;-80
2021/06/12 11:49:33;;;;;;;1999.90;999.90;;;23.30;99.90;;;;;;6328124;22;20484;-82
2021/06/12 11:51:59;;;;;;;1999.90;999.90;;;24.90;99.90;;;;;;6329403;22;20457;-82
2021/06/12 11:54:29;;;;;;;449.87;317.53;;;26.30;99.90;;;;;;6326276;22;20445;-83
2021/06/12 11:56:58;;;;;;;479.80;423.40;;;27.20;99.90;;;;;;6327235;22;20414;-82
2021/06/12 11:59:27;;;;;;;12.70;4.03;;;27.70;99.90;;;;;;6326629;22;20430;-84
2021/06/12 12:01:57;;;;;;;10.17;2.83;;;27.60;99.90;;;;;;6325723;22;20429;-83
2021/06/12 12:04:25;;;;;;;9.23;2.87;;;27.90;99.90;;;;;;6328293;22;20394;-82
2021/06/12 12:06:54;;;;;;;8.17;3.07;;;27.30;99.90;;;;;;6328844;22;20426;-82
2021/06/12 12:09:25;;;;;;;6.33;2.63;;;27.20;99.90;;;;;;6326910;22;20505;-83
2021/06/12 12:11:55;;;;;;;6.70;3.17;;;27.70;99.90;;;;;;6325307;22;20406;-82
2021/06/12 12:14:33;;;;;;;7.57;2.23;;;28.60;99.90;;;;;;6325448;22;20410;-83